sensor_id;sensor_type;location;lat;lon;timestamp;pressure;altitude;pressure_sealevel;temperature;humidity
51524;BME280;37610;51.790;21.590;2022-08-21T00:02:34;99697.73;;;22.12;60.21
51524;BME280;37610;51.790;21.590;2022-08-21T00:06:36;99691.67;;;22.11;60.02
51524;BME280;37610;51.790;21.590;2022-08-21T00:10:39;99697.52;;;22.10;60.05
51524;BME280;37610;51.790;21.590;2022-08-21T00:14:40;99696.58;;;22.08;60.28
51524;BME280;37610;51.790;21.590;2022-08-21T00:18:42;99694.14;;;22.05;60.22
51524;BME280;37610;51.790;21.590;2022-08-21T00:22:43;99688.92;;;22.00;60.47
51524;BME280;37610;51.790;21.590;2022-08-21T00:26:45;99693.41;;;21.90;60.48
51524;BME280;37610;51.790;21.590;2022-08-21T00:30:47;99694.77;;;21.81;60.54
51524;BME280;37610;51.790;21.590;2022-08-21T00:34:49;99694.67;;;21.74;60.79
51524;BME280;37610;51.790;21.590;2022-08-21T00:38:50;99691.15;;;21.68;60.97
51524;BME280;37610;51.790;21.590;2022-08-21T00:42:51;99692.50;;;21.65;61.03
51524;BME280;37610;51.790;21.590;2022-08-21T00:46:53;99689.59;;;21.62;61.09
51524;BME280;37610;51.790;21.590;2022-08-21T00:54:59;99681.30;;;21.55;61.21
51524;BME280;37610;51.790;21.590;2022-08-21T00:59:01;99678.77;;;21.52;61.46
51524;BME280;37610;51.790;21.590;2022-08-21T01:03:05;99674.98;;;21.50;61.31
51524;BME280;37610;51.790;21.590;2022-08-21T01:07:07;99666.96;;;21.48;61.49
51524;BME280;37610;51.790;21.590;2022-08-21T01:11:09;99667.27;;;21.46;61.50
51524;BME280;37610;51.790;21.590;2022-08-21T01:15:10;99663.88;;;21.42;61.65
51524;BME280;37610;51.790;21.590;2022-08-21T01:19:14;99661.34;;;21.39;61.70
51524;BME280;37610;51.790;21.590;2022-08-21T01:23:17;99656.77;;;21.37;61.78
51524;BME280;37610;51.790;21.590;2022-08-21T01:27:19;99653.61;;;21.32;61.79
51524;BME280;37610;51.790;21.590;2022-08-21T01:31:21;99658.50;;;21.28;62.08
51524;BME280;37610;51.790;21.590;2022-08-21T01:35:23;99657.20;;;21.24;62.18
51524;BME280;37610;51.790;21.590;2022-08-21T01:39:25;99657.52;;;21.21;62.34
51524;BME280;37610;51.790;21.590;2022-08-21T01:43:26;99651.63;;;21.16;62.22
51524;BME280;37610;51.790;21.590;2022-08-21T01:47:27;99650.52;;;21.11;62.44
51524;BME280;37610;51.790;21.590;2022-08-21T01:51:29;99643.20;;;21.07;62.49
51524;BME280;37610;51.790;21.590;2022-08-21T01:55:30;99635.57;;;21.02;62.68
51524;BME280;37610;51.790;21.590;2022-08-21T01:59:33;99633.98;;;20.97;62.78
51524;BME280;37610;51.790;21.590;2022-08-21T02:03:35;99627.92;;;20.92;62.90
51524;BME280;37610;51.790;21.590;2022-08-21T02:07:41;99629.23;;;20.86;63.02
51524;BME280;37610;51.790;21.590;2022-08-21T02:11:43;99630.48;;;20.80;63.17
51524;BME280;37610;51.790;21.590;2022-08-21T02:15:44;99631.40;;;20.76;63.19
51524;BME280;37610;51.790;21.590;2022-08-21T02:19:46;99631.36;;;20.71;63.27
51524;BME280;37610;51.790;21.590;2022-08-21T02:23:47;99627.42;;;20.67;63.32
51524;BME280;37610;51.790;21.590;2022-08-21T02:27:48;99622.07;;;20.62;63.44
51524;BME280;37610;51.790;21.590;2022-08-21T02:31:50;99616.58;;;20.59;63.39
51524;BME280;37610;51.790;21.590;2022-08-21T02:35:52;99620.63;;;20.57;63.78
51524;BME280;37610;51.790;21.590;2022-08-21T02:39:54;99618.73;;;20.54;63.64
51524;BME280;37610;51.790;21.590;2022-08-21T02:43:55;99616.60;;;20.54;63.72
51524;BME280;37610;51.790;21.590;2022-08-21T02:47:58;99616.02;;;20.52;63.73
51524;BME280;37610;51.790;21.590;2022-08-21T02:52:00;99618.89;;;20.50;63.88
51524;BME280;37610;51.790;21.590;2022-08-21T02:56:03;99616.29;;;20.47;63.90
51524;BME280;37610;51.790;21.590;2022-08-21T03:00:05;99615.33;;;20.46;64.02
51524;BME280;37610;51.790;21.590;2022-08-21T03:04:06;99611.02;;;20.44;63.89
51524;BME280;37610;51.790;21.590;2022-08-21T03:08:09;99606.92;;;20.41;63.98
51524;BME280;37610;51.790;21.590;2022-08-21T03:12:11;99611.55;;;20.39;64.04
51524;BME280;37610;51.790;21.590;2022-08-21T03:16:12;99610.60;;;20.38;64.31
51524;BME280;37610;51.790;21.590;2022-08-21T03:20:15;99605.23;;;20.35;64.15
51524;BME280;37610;51.790;21.590;2022-08-21T03:24:17;99608.04;;;20.33;64.17
51524;BME280;37610;51.790;21.590;2022-08-21T03:28:19;99607.41;;;20.31;64.33
51524;BME280;37610;51.790;21.590;2022-08-21T03:32:22;99608.86;;;20.31;64.47
51524;BME280;37610;51.790;21.590;2022-08-21T03:36:24;99604.69;;;20.29;64.39
51524;BME280;37610;51.790;21.590;2022-08-21T03:40:26;99604.37;;;20.29;64.48
51524;BME280;37610;51.790;21.590;2022-08-21T03:44:27;99601.86;;;20.28;64.55
51524;BME280;37610;51.790;21.590;2022-08-21T03:48:30;99601.44;;;20.26;64.71
51524;BME280;37610;51.790;21.590;2022-08-21T03:52:31;99602.94;;;20.25;64.51
51524;BME280;37610;51.790;21.590;2022-08-21T03:56:33;99604.80;;;20.25;64.77
51524;BME280;37610;51.790;21.590;2022-08-21T04:00:34;99605.07;;;20.25;64.60
51524;BME280;37610;51.790;21.590;2022-08-21T04:04:36;99606.38;;;20.25;64.69
51524;BME280;37610;51.790;21.590;2022-08-21T04:08:37;99603.95;;;20.25;64.64
51524;BME280;37610;51.790;21.590;2022-08-21T04:12:39;99600.31;;;20.27;64.85
51524;BME280;37610;51.790;21.590;2022-08-21T04:16:40;99595.33;;;20.27;64.82
51524;BME280;37610;51.790;21.590;2022-08-21T04:20:42;99591.80;;;20.27;65.03
51524;BME280;37610;51.790;21.590;2022-08-21T04:24:45;99591.50;;;20.29;64.96
51524;BME280;37610;51.790;21.590;2022-08-21T04:28:47;99593.31;;;20.32;65.00
51524;BME280;37610;51.790;21.590;2022-08-21T04:32:49;99591.27;;;20.36;65.02
51524;BME280;37610;51.790;21.590;2022-08-21T04:36:51;99591.85;;;20.40;65.11
51524;BME280;37610;51.790;21.590;2022-08-21T04:40:52;99594.64;;;20.46;65.15
51524;BME280;37610;51.790;21.590;2022-08-21T04:44:54;99594.85;;;20.51;65.10
51524;BME280;37610;51.790;21.590;2022-08-21T04:48:57;99596.98;;;20.55;64.72
51524;BME280;37610;51.790;21.590;2022-08-21T04:52:58;99604.86;;;20.52;64.76
51524;BME280;37610;51.790;21.590;2022-08-21T04:57:01;99599.56;;;20.51;64.72
51524;BME280;37610;51.790;21.590;2022-08-21T05:01:06;99599.31;;;20.58;65.04
51524;BME280;37610;51.790;21.590;2022-08-21T05:05:09;99599.24;;;20.65;65.19
51524;BME280;37610;51.790;21.590;2022-08-21T05:09:12;99597.34;;;20.75;65.33
51524;BME280;37610;51.790;21.590;2022-08-21T05:13:14;99602.61;;;20.82;65.03
51524;BME280;37610;51.790;21.590;2022-08-21T05:17:16;99601.35;;;20.83;65.31
51524;BME280;37610;51.790;21.590;2022-08-21T05:21:17;99601.16;;;20.94;65.44
51524;BME280;37610;51.790;21.590;2022-08-21T05:25:18;99604.04;;;21.04;65.51
51524;BME280;37610;51.790;21.590;2022-08-21T05:29:20;99611.23;;;21.16;65.41
51524;BME280;37610;51.790;21.590;2022-08-21T05:33:22;99613.30;;;21.26;65.25
51524;BME280;37610;51.790;21.590;2022-08-21T05:37:23;99619.90;;;21.34;65.01
51524;BME280;37610;51.790;21.590;2022-08-21T05:41:25;99629.98;;;21.42;65.05
51524;BME280;37610;51.790;21.590;2022-08-21T05:45:27;99627.42;;;21.52;64.92
51524;BME280;37610;51.790;21.590;2022-08-21T05:49:29;99627.27;;;21.61;64.94
51524;BME280;37610;51.790;21.590;2022-08-21T05:53:30;99628.38;;;21.69;64.69
51524;BME280;37610;51.790;21.590;2022-08-21T05:57:32;99629.52;;;21.69;64.68
51524;BME280;37610;51.790;21.590;2022-08-21T06:01:34;99625.12;;;21.77;64.92
51524;BME280;37610;51.790;21.590;2022-08-21T06:05:35;99623.21;;;21.81;64.54
51524;BME280;37610;51.790;21.590;2022-08-21T06:09:36;99612.23;;;21.80;64.46
51524;BME280;37610;51.790;21.590;2022-08-21T06:13:39;99617.59;;;21.78;64.71
51524;BME280;37610;51.790;21.590;2022-08-21T06:17:40;99616.81;;;21.79;65.11
51524;BME280;37610;51.790;21.590;2022-08-21T06:21:42;99613.23;;;21.96;64.96
51524;BME280;37610;51.790;21.590;2022-08-21T06:25:43;99611.97;;;22.09;64.88
51524;BME280;37610;51.790;21.590;2022-08-21T06:29:44;99611.77;;;22.22;64.79
51524;BME280;37610;51.790;21.590;2022-08-21T06:33:46;99609.50;;;22.34;64.71
51524;BME280;37610;51.790;21.590;2022-08-21T06:37:48;99608.88;;;22.44;64.41
51524;BME280;37610;51.790;21.590;2022-08-21T06:41:49;99609.44;;;22.54;64.20
51524;BME280;37610;51.790;21.590;2022-08-21T06:45:51;99608.27;;;22.67;64.20
51524;BME280;37610;51.790;21.590;2022-08-21T06:49:52;99611.95;;;22.79;64.05
51524;BME280;37610;51.790;21.590;2022-08-21T06:53:54;99610.86;;;22.91;63.93
51524;BME280;37610;51.790;21.590;2022-08-21T06:57:56;99606.57;;;23.05;63.80
51524;BME280;37610;51.790;21.590;2022-08-21T07:01:58;99609.02;;;23.17;63.82
51524;BME280;37610;51.790;21.590;2022-08-21T07:05:59;99610.52;;;23.34;63.57
51524;BME280;37610;51.790;21.590;2022-08-21T07:10:01;99616.23;;;23.39;63.12
51524;BME280;37610;51.790;21.590;2022-08-21T07:14:02;99621.30;;;23.38;62.87
51524;BME280;37610;51.790;21.590;2022-08-21T07:18:03;99624.02;;;23.37;62.92
51524;BME280;37610;51.790;21.590;2022-08-21T07:22:05;99626.32;;;23.44;62.93
51524;BME280;37610;51.790;21.590;2022-08-21T07:26:06;99620.88;;;23.49;62.58
51524;BME280;37610;51.790;21.590;2022-08-21T07:30:08;99628.02;;;23.53;62.60
51524;BME280;37610;51.790;21.590;2022-08-21T07:34:09;99619.48;;;23.59;62.31
51524;BME280;37610;51.790;21.590;2022-08-21T07:38:11;99614.92;;;23.63;62.26
51524;BME280;37610;51.790;21.590;2022-08-21T07:42:12;99614.28;;;23.72;62.12
51524;BME280;37610;51.790;21.590;2022-08-21T07:46:14;99613.21;;;23.78;61.87
51524;BME280;37610;51.790;21.590;2022-08-21T07:50:15;99603.95;;;23.83;61.91
51524;BME280;37610;51.790;21.590;2022-08-21T07:54:17;99601.36;;;23.95;61.62
51524;BME280;37610;51.790;21.590;2022-08-21T07:58:19;99599.93;;;24.08;61.51
51524;BME280;37610;51.790;21.590;2022-08-21T08:02:24;99596.39;;;24.20;61.36
51524;BME280;37610;51.790;21.590;2022-08-21T08:06:25;99591.11;;;24.31;61.08
51524;BME280;37610;51.790;21.590;2022-08-21T08:10:27;99589.50;;;24.43;60.95
51524;BME280;37610;51.790;21.590;2022-08-21T08:14:29;99587.59;;;24.53;60.64
51524;BME280;37610;51.790;21.590;2022-08-21T08:18:30;99586.27;;;24.61;59.82
51524;BME280;37610;51.790;21.590;2022-08-21T08:22:32;99589.04;;;24.61;59.48
51524;BME280;37610;51.790;21.590;2022-08-21T08:26:34;99581.61;;;24.64;59.30
51524;BME280;37610;51.790;21.590;2022-08-21T08:30:36;99576.36;;;24.68;59.30
51524;BME280;37610;51.790;21.590;2022-08-21T08:34:37;99571.89;;;24.78;59.30
51524;BME280;37610;51.790;21.590;2022-08-21T08:38:39;99575.00;;;24.86;58.71
51524;BME280;37610;51.790;21.590;2022-08-21T08:42:41;99569.23;;;24.90;58.74
51524;BME280;37610;51.790;21.590;2022-08-21T08:46:44;99572.86;;;25.02;58.51
51524;BME280;37610;51.790;21.590;2022-08-21T08:50:52;99566.52;;;25.16;58.52
51524;BME280;37610;51.790;21.590;2022-08-21T08:55:01;99574.33;;;25.28;57.85
51524;BME280;37610;51.790;21.590;2022-08-21T08:59:19;99575.95;;;25.33;57.54
51524;BME280;37610;51.790;21.590;2022-08-21T09:03:22;99577.09;;;25.36;57.44
51524;BME280;37610;51.790;21.590;2022-08-21T09:11:42;99577.09;;;25.48;56.28
51524;BME280;37610;51.790;21.590;2022-08-21T09:28:33;99568.48;;;26.11;54.01
51524;BME280;37610;51.790;21.590;2022-08-21T09:32:35;99572.40;;;26.23;53.31
51524;BME280;37610;51.790;21.590;2022-08-21T09:36:39;99565.54;;;26.33;53.64
51524;BME280;37610;51.790;21.590;2022-08-21T09:40:43;99563.92;;;26.47;53.32
51524;BME280;37610;51.790;21.590;2022-08-21T09:44:45;99560.09;;;26.62;52.92
51524;BME280;37610;51.790;21.590;2022-08-21T09:48:49;99564.52;;;26.72;53.18
51524;BME280;37610;51.790;21.590;2022-08-21T09:52:58;99562.78;;;26.85;53.17
51524;BME280;37610;51.790;21.590;2022-08-21T09:57:04;99563.52;;;27.00;53.12
51524;BME280;37610;51.790;21.590;2022-08-21T10:01:31;99558.80;;;27.04;52.75
51524;BME280;37610;51.790;21.590;2022-08-21T10:05:32;99556.18;;;27.11;52.42
51524;BME280;37610;51.790;21.590;2022-08-21T10:09:34;99560.05;;;27.17;52.76
51524;BME280;37610;51.790;21.590;2022-08-21T10:18:03;99561.19;;;27.27;51.81
51524;BME280;37610;51.790;21.590;2022-08-21T10:22:10;99556.30;;;27.25;51.48
51524;BME280;37610;51.790;21.590;2022-08-21T10:30:19;99553.09;;;27.26;50.89
51524;BME280;37610;51.790;21.590;2022-08-21T10:55:33;99548.77;;;27.35;50.04
51524;BME280;37610;51.790;21.590;2022-08-21T10:59:44;99545.81;;;27.50;49.97
51524;BME280;37610;51.790;21.590;2022-08-21T11:03:53;99543.69;;;27.62;50.01
51524;BME280;37610;51.790;21.590;2022-08-21T11:08:02;99539.27;;;27.82;49.96
51524;BME280;37610;51.790;21.590;2022-08-21T11:12:18;99537.08;;;28.00;49.36
51524;BME280;37610;51.790;21.590;2022-08-21T11:20:33;99534.69;;;28.34;48.64
51524;BME280;37610;51.790;21.590;2022-08-21T11:28:48;99533.54;;;28.37;48.24
51524;BME280;37610;51.790;21.590;2022-08-21T11:37:03;99529.73;;;28.52;48.09
51524;BME280;37610;51.790;21.590;2022-08-21T12:01:31;99532.38;;;28.57;48.47
51524;BME280;37610;51.790;21.590;2022-08-21T12:05:38;99530.53;;;28.65;48.33
51524;BME280;37610;51.790;21.590;2022-08-21T12:09:51;99527.33;;;28.77;47.91
51524;BME280;37610;51.790;21.590;2022-08-21T12:14:34;99528.65;;;28.79;47.29
51524;BME280;37610;51.790;21.590;2022-08-21T12:18:27;99524.16;;;28.83;47.12
51524;BME280;37610;51.790;21.590;2022-08-21T12:22:37;99522.66;;;28.95;47.35
51524;BME280;37610;51.790;21.590;2022-08-21T12:30:56;99529.63;;;29.64;46.24
51524;BME280;37610;51.790;21.590;2022-08-21T12:35:06;99533.16;;;29.75;45.96
51524;BME280;37610;51.790;21.590;2022-08-21T12:39:12;99535.84;;;29.73;45.43
51524;BME280;37610;51.790;21.590;2022-08-21T12:43:17;99539.23;;;29.57;45.54
51524;BME280;37610;51.790;21.590;2022-08-21T12:55:52;99545.08;;;29.00;45.64
51524;BME280;37610;51.790;21.590;2022-08-21T13:00:03;99544.31;;;29.08;45.31
51524;BME280;37610;51.790;21.590;2022-08-21T13:04:09;99543.67;;;29.27;45.58
51524;BME280;37610;51.790;21.590;2022-08-21T13:08:12;99543.58;;;29.42;45.25
51524;BME280;37610;51.790;21.590;2022-08-21T13:12:15;99543.45;;;29.64;45.48
51524;BME280;37610;51.790;21.590;2022-08-21T13:16:22;99538.59;;;30.08;45.02
51524;BME280;37610;51.790;21.590;2022-08-21T13:20:27;99543.81;;;30.17;44.12
51524;BME280;37610;51.790;21.590;2022-08-21T13:24:32;99547.87;;;30.15;43.91
51524;BME280;37610;51.790;21.590;2022-08-21T13:28:34;99546.38;;;30.14;44.19
51524;BME280;37610;51.790;21.590;2022-08-21T13:32:43;99542.83;;;30.06;43.99
51524;BME280;37610;51.790;21.590;2022-08-21T13:36:45;99537.88;;;29.94;44.28
51524;BME280;37610;51.790;21.590;2022-08-21T13:40:49;99540.00;;;29.98;44.04
51524;BME280;37610;51.790;21.590;2022-08-21T13:44:50;99538.10;;;30.35;43.71
51524;BME280;37610;51.790;21.590;2022-08-21T13:48:53;99531.97;;;30.66;43.44
51524;BME280;37610;51.790;21.590;2022-08-21T13:56:57;99524.85;;;31.49;42.66
51524;BME280;37610;51.790;21.590;2022-08-21T14:00:59;99523.84;;;32.01;42.08
51524;BME280;37610;51.790;21.590;2022-08-21T14:05:01;99528.66;;;32.51;41.45
51524;BME280;37610;51.790;21.590;2022-08-21T14:09:08;99528.45;;;32.97;40.97
51524;BME280;37610;51.790;21.590;2022-08-21T14:13:32;99536.47;;;32.78;40.17
51524;BME280;37610;51.790;21.590;2022-08-21T14:17:35;99538.05;;;32.67;40.39
51524;BME280;37610;51.790;21.590;2022-08-21T14:21:39;99535.17;;;33.17;39.98
51524;BME280;37610;51.790;21.590;2022-08-21T14:25:44;99538.70;;;33.59;39.30
51524;BME280;37610;51.790;21.590;2022-08-21T14:29:46;99540.11;;;33.93;38.62
51524;BME280;37610;51.790;21.590;2022-08-21T14:33:48;99535.92;;;34.06;38.20
51524;BME280;37610;51.790;21.590;2022-08-21T14:37:49;99531.52;;;34.14;38.01
51524;BME280;37610;51.790;21.590;2022-08-21T14:41:53;99534.11;;;34.48;37.69
51524;BME280;37610;51.790;21.590;2022-08-21T14:45:56;99532.28;;;34.79;37.01
51524;BME280;37610;51.790;21.590;2022-08-21T14:49:57;99532.80;;;34.92;36.32
51524;BME280;37610;51.790;21.590;2022-08-21T14:53:59;99523.23;;;35.07;36.30
51524;BME280;37610;51.790;21.590;2022-08-21T14:58:00;99530.96;;;35.03;35.48
51524;BME280;37610;51.790;21.590;2022-08-21T15:02:02;99534.73;;;35.05;35.75
51524;BME280;37610;51.790;21.590;2022-08-21T15:06:05;99538.06;;;34.64;34.62
51524;BME280;37610;51.790;21.590;2022-08-21T15:10:07;99543.52;;;34.23;35.34
51524;BME280;37610;51.790;21.590;2022-08-21T15:14:11;99543.86;;;34.17;35.55
51524;BME280;37610;51.790;21.590;2022-08-21T15:18:15;99542.45;;;34.28;35.54
51524;BME280;37610;51.790;21.590;2022-08-21T15:22:16;99543.42;;;34.46;35.44
51524;BME280;37610;51.790;21.590;2022-08-21T15:26:18;99547.14;;;34.50;35.28
51524;BME280;37610;51.790;21.590;2022-08-21T15:30:19;99547.05;;;34.38;34.95
51524;BME280;37610;51.790;21.590;2022-08-21T15:34:22;99549.59;;;34.30;35.12
51524;BME280;37610;51.790;21.590;2022-08-21T15:38:24;99554.73;;;34.37;34.91
51524;BME280;37610;51.790;21.590;2022-08-21T15:42:26;99554.61;;;34.21;34.79
51524;BME280;37610;51.790;21.590;2022-08-21T15:46:28;99555.34;;;34.35;34.68
51524;BME280;37610;51.790;21.590;2022-08-21T15:50:29;99555.55;;;34.46;34.66
51524;BME280;37610;51.790;21.590;2022-08-21T15:54:33;99557.42;;;34.65;34.33
51524;BME280;37610;51.790;21.590;2022-08-21T15:58:34;99555.13;;;34.39;34.16
51524;BME280;37610;51.790;21.590;2022-08-21T16:02:36;99552.55;;;34.28;34.40
51524;BME280;37610;51.790;21.590;2022-08-21T16:06:38;99548.83;;;34.58;34.12
51524;BME280;37610;51.790;21.590;2022-08-21T16:10:39;99549.18;;;34.40;33.94
51524;BME280;37610;51.790;21.590;2022-08-21T16:14:41;99550.84;;;33.87;34.27
51524;BME280;37610;51.790;21.590;2022-08-21T16:18:42;99552.78;;;33.19;34.66
51524;BME280;37610;51.790;21.590;2022-08-21T16:22:44;99546.17;;;32.63;35.26
51524;BME280;37610;51.790;21.590;2022-08-21T16:26:46;99542.27;;;32.42;35.55
51524;BME280;37610;51.790;21.590;2022-08-21T16:30:49;99542.51;;;32.31;35.68
51524;BME280;37610;51.790;21.590;2022-08-21T16:34:51;99534.44;;;31.92;35.91
51524;BME280;37610;51.790;21.590;2022-08-21T16:38:53;99532.80;;;31.45;36.48
51524;BME280;37610;51.790;21.590;2022-08-21T16:42:55;99536.08;;;31.05;37.14
51524;BME280;37610;51.790;21.590;2022-08-21T16:46:56;99546.20;;;30.63;37.57
51524;BME280;37610;51.790;21.590;2022-08-21T16:50:58;99551.15;;;30.12;38.03
51524;BME280;37610;51.790;21.590;2022-08-21T16:54:59;99551.11;;;29.65;38.68
51524;BME280;37610;51.790;21.590;2022-08-21T16:59:00;99549.53;;;29.14;39.66
51524;BME280;37610;51.790;21.590;2022-08-21T17:03:02;99546.90;;;28.70;40.45
51524;BME280;37610;51.790;21.590;2022-08-21T17:07:03;99559.27;;;28.29;41.38
51524;BME280;37610;51.790;21.590;2022-08-21T17:11:07;99556.73;;;27.86;41.93
51524;BME280;37610;51.790;21.590;2022-08-21T17:15:15;99555.60;;;27.49;42.66
51524;BME280;37610;51.790;21.590;2022-08-21T17:19:17;99552.60;;;27.13;43.76
51524;BME280;37610;51.790;21.590;2022-08-21T17:23:19;99557.45;;;26.83;44.29
51524;BME280;37610;51.790;21.590;2022-08-21T17:27:21;99559.67;;;26.51;44.81
51524;BME280;37610;51.790;21.590;2022-08-21T17:31:23;99561.51;;;26.22;45.41
51524;BME280;37610;51.790;21.590;2022-08-21T17:35:25;99564.48;;;25.89;46.04
51524;BME280;37610;51.790;21.590;2022-08-21T17:39:26;99567.73;;;25.51;46.53
51524;BME280;37610;51.790;21.590;2022-08-21T17:43:27;99569.92;;;25.21;47.46
51524;BME280;37610;51.790;21.590;2022-08-21T17:47:29;99574.78;;;24.98;48.26
51524;BME280;37610;51.790;21.590;2022-08-21T17:51:30;99582.56;;;24.77;48.74
51524;BME280;37610;51.790;21.590;2022-08-21T17:55:32;99582.98;;;24.55;49.02
51524;BME280;37610;51.790;21.590;2022-08-21T17:59:34;99577.55;;;24.30;49.57
51524;BME280;37610;51.790;21.590;2022-08-21T18:03:35;99576.42;;;24.08;50.04
51524;BME280;37610;51.790;21.590;2022-08-21T18:07:38;99575.41;;;23.89;50.52
51524;BME280;37610;51.790;21.590;2022-08-21T18:11:40;99574.93;;;23.73;50.90
51524;BME280;37610;51.790;21.590;2022-08-21T18:15:43;99577.84;;;23.56;51.27
51524;BME280;37610;51.790;21.590;2022-08-21T18:19:46;99581.95;;;23.42;51.74
51524;BME280;37610;51.790;21.590;2022-08-21T18:23:47;99585.77;;;23.30;52.02
51524;BME280;37610;51.790;21.590;2022-08-21T18:27:49;99588.31;;;23.18;52.38
51524;BME280;37610;51.790;21.590;2022-08-21T18:31:52;99588.58;;;23.08;52.74
51524;BME280;37610;51.790;21.590;2022-08-21T18:35:54;99589.48;;;23.00;52.92
51524;BME280;37610;51.790;21.590;2022-08-21T18:39:55;99596.29;;;22.92;53.08
51524;BME280;37610;51.790;21.590;2022-08-21T18:43:57;99601.39;;;22.83;53.29
51524;BME280;37610;51.790;21.590;2022-08-21T18:47:58;99601.70;;;22.76;53.62
51524;BME280;37610;51.790;21.590;2022-08-21T18:52:02;99598.29;;;22.69;53.93
51524;BME280;37610;51.790;21.590;2022-08-21T18:56:04;99600.11;;;22.60;54.20
51524;BME280;37610;51.790;21.590;2022-08-21T19:00:06;99604.58;;;22.52;54.58
51524;BME280;37610;51.790;21.590;2022-08-21T19:04:11;99607.95;;;22.42;54.54
51524;BME280;37610;51.790;21.590;2022-08-21T19:08:13;99609.83;;;22.31;54.84
51524;BME280;37610;51.790;21.590;2022-08-21T19:12:17;99608.45;;;22.16;55.17
51524;BME280;37610;51.790;21.590;2022-08-21T19:16:21;99615.61;;;22.07;55.34
51524;BME280;37610;51.790;21.590;2022-08-21T19:20:24;99616.38;;;21.99;55.86
51524;BME280;37610;51.790;21.590;2022-08-21T19:24:26;99615.41;;;21.94;56.34
51524;BME280;37610;51.790;21.590;2022-08-21T19:28:30;99616.81;;;21.89;56.40
51524;BME280;37610;51.790;21.590;2022-08-21T19:32:32;99620.80;;;21.87;56.49
51524;BME280;37610;51.790;21.590;2022-08-21T19:36:34;99618.81;;;21.84;56.78
51524;BME280;37610;51.790;21.590;2022-08-21T19:40:35;99619.97;;;21.80;56.98
51524;BME280;37610;51.790;21.590;2022-08-21T19:44:36;99619.81;;;21.76;57.03
51524;BME280;37610;51.790;21.590;2022-08-21T19:48:38;99620.23;;;21.70;57.35
51524;BME280;37610;51.790;21.590;2022-08-21T19:52:40;99624.20;;;21.68;57.46
51524;BME280;37610;51.790;21.590;2022-08-21T19:56:41;99622.02;;;21.67;57.72
51524;BME280;37610;51.790;21.590;2022-08-21T20:00:43;99623.16;;;21.62;57.73
51524;BME280;37610;51.790;21.590;2022-08-21T20:04:45;99622.38;;;21.61;58.03
51524;BME280;37610;51.790;21.590;2022-08-21T20:08:46;99623.20;;;21.59;58.24
51524;BME280;37610;51.790;21.590;2022-08-21T20:12:48;99622.54;;;21.58;58.21
51524;BME280;37610;51.790;21.590;2022-08-21T20:16:50;99616.52;;;21.57;58.47
51524;BME280;37610;51.790;21.590;2022-08-21T20:20:52;99618.34;;;21.58;58.70
51524;BME280;37610;51.790;21.590;2022-08-21T20:24:53;99620.06;;;21.58;58.70
51524;BME280;37610;51.790;21.590;2022-08-21T20:28:55;99616.05;;;21.56;58.69
51524;BME280;37610;51.790;21.590;2022-08-21T20:32:57;99617.70;;;21.56;58.84
51524;BME280;37610;51.790;21.590;2022-08-21T20:36:58;99614.59;;;21.54;58.85
51524;BME280;37610;51.790;21.590;2022-08-21T20:40:59;99610.50;;;21.51;58.86
51524;BME280;37610;51.790;21.590;2022-08-21T20:45:01;99604.55;;;21.47;58.84
51524;BME280;37610;51.790;21.590;2022-08-21T20:49:04;99605.87;;;21.42;59.19
51524;BME280;37610;51.790;21.590;2022-08-21T20:53:12;99600.05;;;21.39;59.27
51524;BME280;37610;51.790;21.590;2022-08-21T21:01:15;99604.42;;;21.34;59.57
51524;BME280;37610;51.790;21.590;2022-08-21T21:05:23;99607.35;;;21.28;59.62
51524;BME280;37610;51.790;21.590;2022-08-21T21:09:35;99607.73;;;21.24;59.83
51524;BME280;37610;51.790;21.590;2022-08-21T21:13:43;99610.30;;;21.21;59.94
51524;BME280;37610;51.790;21.590;2022-08-21T21:17:49;99607.73;;;21.17;60.28
51524;BME280;37610;51.790;21.590;2022-08-21T21:21:59;99605.23;;;21.13;60.19
51524;BME280;37610;51.790;21.590;2022-08-21T21:26:13;99606.28;;;21.09;60.50
51524;BME280;37610;51.790;21.590;2022-08-21T21:30:21;99601.35;;;21.04;60.60
51524;BME280;37610;51.790;21.590;2022-08-21T21:34:24;99596.97;;;21.02;60.81
51524;BME280;37610;51.790;21.590;2022-08-21T21:38:36;99597.41;;;21.02;61.13
51524;BME280;37610;51.790;21.590;2022-08-21T21:47:07;99597.38;;;21.00;61.14
51524;BME280;37610;51.790;21.590;2022-08-21T22:07:58;99600.06;;;20.88;62.08
51524;BME280;37610;51.790;21.590;2022-08-21T22:12:05;99601.34;;;20.92;62.24
51524;BME280;37610;51.790;21.590;2022-08-21T22:16:10;99602.35;;;20.97;62.11
51524;BME280;37610;51.790;21.590;2022-08-21T22:20:13;99602.14;;;21.01;62.23
51524;BME280;37610;51.790;21.590;2022-08-21T22:24:17;99600.36;;;21.05;62.30
51524;BME280;37610;51.790;21.590;2022-08-21T22:28:23;99602.91;;;21.09;62.39
51524;BME280;37610;51.790;21.590;2022-08-21T22:36:34;99604.10;;;21.13;62.24
51524;BME280;37610;51.790;21.590;2022-08-21T22:40:37;99606.05;;;21.12;62.47
51524;BME280;37610;51.790;21.590;2022-08-21T22:44:48;99600.31;;;21.11;62.16
51524;BME280;37610;51.790;21.590;2022-08-21T22:48:52;99598.70;;;21.10;62.30
51524;BME280;37610;51.790;21.590;2022-08-21T22:53:04;99597.05;;;21.09;62.45
51524;BME280;37610;51.790;21.590;2022-08-21T22:57:11;99590.13;;;21.08;62.73
51524;BME280;37610;51.790;21.590;2022-08-21T23:01:16;99595.05;;;21.06;62.67
51524;BME280;37610;51.790;21.590;2022-08-21T23:09:35;99597.03;;;20.98;62.90
51524;BME280;37610;51.790;21.590;2022-08-21T23:13:42;99596.06;;;20.94;62.87
51524;BME280;37610;51.790;21.590;2022-08-21T23:26:23;99598.79;;;20.87;63.44
51524;BME280;37610;51.790;21.590;2022-08-21T23:50:50;99606.80;;;20.78;63.70
51524;BME280;37610;51.790;21.590;2022-08-21T23:59:10;99596.81;;;20.82;64.39
